Terminal Aerodrome Forecast
Issued by NWS

Home | Current Version | Previous Version | Text Only | Print | Product List | Glossary Off
Versions: 1 2 3 4 5 6 7 8 9 10 11 12 13 14 15 16 17 18 19 20 21 22 23

000
FTUS43 KLOT 210311 AAA
TAFDPA
TAF AMD
KDPA 210311Z 2103/2124 18004KT 4SM BR OVC018
     FM210700 VRB03KT 6SM BR OVC012
     FM211200 15004KT 3SM BR OVC009
     FM211900 10004KT 1 1/2SM -DZ BR OVC008
      TEMPO 2121/2124 3/4SM -DZ BR OVC003=

USA.gov is the U.S. government's official web portal to all federal, state and local government web resources and services.